createdAt,value
2022-12-27T00:00:06.426Z,2.50
2022-12-27T00:03:07.845Z,2.20
2022-12-27T00:05:45.379Z,3.90
2022-12-27T00:08:23.205Z,8.00
2022-12-27T00:10:57.814Z,2.50
2022-12-27T00:13:32.097Z,3.90
2022-12-27T00:16:12.117Z,3.50
2022-12-27T00:18:47.485Z,2.20
2022-12-27T00:21:23.816Z,2.20
2022-12-27T00:23:59.341Z,3.10
2022-12-27T00:26:36.403Z,2.70
2022-12-27T00:29:11.612Z,2.80
2022-12-27T00:31:45.925Z,3.60
2022-12-27T00:34:20.075Z,2.60
2022-12-27T00:36:54.037Z,3.30
2022-12-27T00:39:28.100Z,3.90
2022-12-27T00:42:01.997Z,2.10
2022-12-27T00:44:35.929Z,4.10
2022-12-27T00:47:10.229Z,2.60
2022-12-27T00:49:44.167Z,4.40
2022-12-27T00:52:18.069Z,3.70
2022-12-27T00:54:52.066Z,2.50
2022-12-27T00:57:26.055Z,3.20
2022-12-27T01:00:04.714Z,2.60
2022-12-27T01:02:42.048Z,4.60
2022-12-27T01:05:16.036Z,3.40
2022-12-27T01:07:50.445Z,2.10
2022-12-27T01:10:24.449Z,2.20
2022-12-27T01:12:58.889Z,4.10
2022-12-27T01:15:33.014Z,3.40
2022-12-27T01:18:07.142Z,3.20
2022-12-27T01:20:41.949Z,2.70
2022-12-27T01:23:15.867Z,3.30
2022-12-27T01:25:49.937Z,3.60
2022-12-27T01:28:24.256Z,4.30
2022-12-27T01:30:58.371Z,3.10
2022-12-27T01:33:32.175Z,4.10
2022-12-27T01:36:16.040Z,2.40
2022-12-27T01:38:50.811Z,3.00
2022-12-27T01:41:45.027Z,4.40
2022-12-27T01:44:57.245Z,3.70
2022-12-27T01:47:41.735Z,3.90
2022-12-27T01:50:26.057Z,2.90
2022-12-27T01:53:09.774Z,3.60
2022-12-27T01:55:50.160Z,3.80
2022-12-27T01:58:35.630Z,2.90
2022-12-27T02:01:15.651Z,3.40
2022-12-27T02:03:54.013Z,4.80
2022-12-27T02:06:29.438Z,3.70
2022-12-27T02:09:11.995Z,3.20
2022-12-27T02:11:53.911Z,3.70
2022-12-27T02:14:35.430Z,4.20
2022-12-27T02:17:14.963Z,3.20
2022-12-27T02:20:07.513Z,4.80
2022-12-27T02:23:27.110Z,2.70
2022-12-27T02:26:49.612Z,3.20
2022-12-27T02:29:51.901Z,3.00
2022-12-27T02:32:32.488Z,5.50
2022-12-27T02:35:17.028Z,5.30
2022-12-27T02:37:56.991Z,3.00
2022-12-27T02:40:50.232Z,5.30
2022-12-27T02:43:41.980Z,5.00
2022-12-27T02:46:38.388Z,1.40
2022-12-27T02:49:48.154Z,4.00
2022-12-27T02:52:59.025Z,3.00
2022-12-27T02:56:05.043Z,3.90
2022-12-27T02:58:57.462Z,5.40
2022-12-27T03:02:07.769Z,5.90
2022-12-27T03:05:15.196Z,5.50
2022-12-27T03:07:59.949Z,5.30
2022-12-27T03:11:00.382Z,2.50
2022-12-27T03:14:01.917Z,4.40
2022-12-27T03:16:56.189Z,4.90
2022-12-27T03:19:57.229Z,5.80
2022-12-27T03:22:52.077Z,10.20
2022-12-27T03:25:31.247Z,6.30
2022-12-27T03:28:29.186Z,7.40
2022-12-27T03:31:27.864Z,3.30
2022-12-27T03:34:22.561Z,6.80
2022-12-27T03:37:17.169Z,3.90
2022-12-27T03:40:03.408Z,4.70
2022-12-27T03:43:00.191Z,6.30
2022-12-27T03:46:06.094Z,6.40
2022-12-27T03:49:07.016Z,6.80
2022-12-27T03:51:48.480Z,6.90
2022-12-27T03:54:27.411Z,4.90
2022-12-27T03:57:06.846Z,5.00
2022-12-27T03:59:41.387Z,7.50
2022-12-27T04:02:15.966Z,4.40
2022-12-27T04:04:50.825Z,5.60
2022-12-27T04:07:24.707Z,6.40
2022-12-27T04:10:16.160Z,5.90
2022-12-27T04:13:08.161Z,4.80
2022-12-27T04:15:59.522Z,5.20
2022-12-27T04:18:50.953Z,5.50
2022-12-27T04:21:42.542Z,6.60
2022-12-27T04:24:34.183Z,8.70
2022-12-27T04:27:25.924Z,4.90
2022-12-27T04:30:17.605Z,5.80
2022-12-27T04:33:09.457Z,5.60
2022-12-27T04:35:43.287Z,7.50
2022-12-27T04:38:17.217Z,10.40
2022-12-27T04:41:08.795Z,8.40
2022-12-27T04:43:59.463Z,7.40
2022-12-27T04:46:51.044Z,5.90
2022-12-27T04:49:46.241Z,7.00
2022-12-27T04:52:41.189Z,7.00
2022-12-27T04:55:24.233Z,6.80
2022-12-27T04:57:59.844Z,7.80
2022-12-27T05:00:54.089Z,10.80
2022-12-27T05:03:28.759Z,5.00
2022-12-27T05:06:03.687Z,7.90
2022-12-27T05:08:55.447Z,6.10
2022-12-27T05:11:48.027Z,4.50
2022-12-27T05:14:22.343Z,8.40
2022-12-27T05:16:56.132Z,11.20
2022-12-27T05:19:30.151Z,6.30
2022-12-27T05:22:21.537Z,7.00
2022-12-27T05:25:12.988Z,6.80
2022-12-27T05:27:47.027Z,4.90
2022-12-27T05:30:22.323Z,4.40
2022-12-27T05:32:58.577Z,4.70
2022-12-27T05:35:34.611Z,5.60
2022-12-27T05:38:08.800Z,6.80
2022-12-27T05:40:42.523Z,10.00
2022-12-27T05:43:16.395Z,5.60
2022-12-27T05:45:50.137Z,4.50
2022-12-27T05:48:24.722Z,7.50
2022-12-27T05:50:58.702Z,5.60
2022-12-27T05:53:32.632Z,4.10
2022-12-27T05:56:07.062Z,5.20
2022-12-27T05:58:40.844Z,7.10
2022-12-27T06:01:18.039Z,5.00
2022-12-27T06:03:51.721Z,9.80
2022-12-27T06:06:25.719Z,5.50
2022-12-27T06:09:00.437Z,7.80
2022-12-27T06:11:34.601Z,4.30
2022-12-27T06:14:08.583Z,7.20
2022-12-27T06:16:42.339Z,7.90
2022-12-27T06:19:16.409Z,5.00
2022-12-27T06:21:50.243Z,5.80
2022-12-27T06:24:24.359Z,7.70
2022-12-27T06:26:58.403Z,7.40
2022-12-27T06:29:32.254Z,9.80
2022-12-27T06:32:06.729Z,7.30
2022-12-27T06:34:41.091Z,6.70
2022-12-27T06:37:14.740Z,6.50
2022-12-27T06:39:49.223Z,4.60
2022-12-27T06:42:23.339Z,6.30
2022-12-27T06:44:57.601Z,10.80
2022-12-27T06:47:31.610Z,5.90
2022-12-27T06:50:05.937Z,7.90
2022-12-27T06:52:40.243Z,7.60
2022-12-27T06:55:15.377Z,6.30
2022-12-27T06:57:49.996Z,12.40
2022-12-27T07:00:24.373Z,7.40
2022-12-27T07:02:58.532Z,6.40
2022-12-27T07:05:32.632Z,4.90
2022-12-27T07:08:07.234Z,7.80
2022-12-27T07:10:42.063Z,4.50
2022-12-27T07:13:16.085Z,12.00
2022-12-27T07:15:49.880Z,7.40
2022-12-27T07:18:24.025Z,8.30
2022-12-27T07:20:57.994Z,8.80
2022-12-27T07:23:31.800Z,6.80
2022-12-27T07:26:10.117Z,10.80
2022-12-27T07:28:45.071Z,8.90
2022-12-27T07:31:23.074Z,7.30
2022-12-27T07:33:58.198Z,6.70
2022-12-27T07:36:37.430Z,5.10
2022-12-27T07:39:12.253Z,5.60
2022-12-27T07:41:46.086Z,11.20
2022-12-27T07:44:22.677Z,7.20
2022-12-27T07:46:56.629Z,9.90
2022-12-27T07:49:30.278Z,8.10
2022-12-27T07:52:03.856Z,8.70
2022-12-27T07:54:37.546Z,9.00
2022-12-27T07:57:11.537Z,8.30
2022-12-27T07:59:45.978Z,8.90
2022-12-27T08:02:20.061Z,8.20
2022-12-27T08:04:53.846Z,5.20
2022-12-27T08:07:29.186Z,8.40
2022-12-27T08:10:03.258Z,6.20
2022-12-27T08:12:37.097Z,5.70
2022-12-27T08:15:13.729Z,7.50
2022-12-27T08:17:47.452Z,5.80
2022-12-27T08:20:21.495Z,7.90
2022-12-27T08:22:56.120Z,7.80
2022-12-27T08:25:32.979Z,7.30
2022-12-27T08:28:14.793Z,7.40
2022-12-27T08:30:50.071Z,7.60
2022-12-27T08:33:34.891Z,5.80
2022-12-27T08:36:52.966Z,7.50
2022-12-27T08:39:07.349Z,4.20
2022-12-27T08:41:40.943Z,4.70
2022-12-27T08:44:21.288Z,9.80
2022-12-27T08:46:55.090Z,5.80
2022-12-27T08:49:28.795Z,6.60
2022-12-27T08:52:03.961Z,5.90
2022-12-27T08:54:37.734Z,4.50
2022-12-27T08:58:13.967Z,2.90
2022-12-27T09:00:56.314Z,3.20
2022-12-27T09:03:31.627Z,6.30
2022-12-27T09:06:16.525Z,20.90
2022-12-27T09:08:52.661Z,4.10
2022-12-27T09:11:29.275Z,3.40
2022-12-27T09:14:06.668Z,4.30
2022-12-27T09:16:41.347Z,7.70
2022-12-27T09:19:15.089Z,7.50
2022-12-27T09:21:48.684Z,7.00
2022-12-27T09:24:22.607Z,7.90
2022-12-27T09:26:56.320Z,7.80
2022-12-27T09:29:34.160Z,7.10
2022-12-27T09:32:10.116Z,6.50
2022-12-27T09:34:44.064Z,4.90
2022-12-27T09:37:18.785Z,3.80
2022-12-27T09:39:52.630Z,5.70
2022-12-27T09:42:58.981Z,5.90
2022-12-27T09:45:44.927Z,6.00
2022-12-27T09:48:33.783Z,6.50
2022-12-27T09:51:17.976Z,3.90
2022-12-27T09:54:02.646Z,5.80
2022-12-27T09:57:02.142Z,5.80
2022-12-27T09:59:39.407Z,6.20
2022-12-27T10:02:25.128Z,5.10
2022-12-27T10:05:19.691Z,3.70
2022-12-27T10:08:20.361Z,6.10
2022-12-27T10:11:06.220Z,2.80
2022-12-27T10:13:55.545Z,3.50
2022-12-27T10:16:38.754Z,4.80
2022-12-27T10:19:37.200Z,5.10
2022-12-27T10:22:33.741Z,5.90
2022-12-27T10:25:26.409Z,3.70
2022-12-27T10:28:13.267Z,3.40
2022-12-27T10:30:51.372Z,6.00
2022-12-27T10:33:29.720Z,3.20
2022-12-27T10:36:11.447Z,4.30
2022-12-27T10:38:45.339Z,3.40
2022-12-27T10:41:45.076Z,5.30
2022-12-27T10:44:26.109Z,7.40
2022-12-27T10:47:06.375Z,8.90
2022-12-27T10:50:02.729Z,3.70
2022-12-27T10:52:41.433Z,4.60
2022-12-27T10:55:39.020Z,4.30
2022-12-27T10:58:45.463Z,6.10
2022-12-27T11:01:29.335Z,3.90
2022-12-27T11:04:21.178Z,6.80
2022-12-27T11:07:15.072Z,5.40
2022-12-27T11:09:51.306Z,4.00
2022-12-27T11:12:28.922Z,5.10
2022-12-27T11:15:08.411Z,6.00
2022-12-27T11:17:47.302Z,6.00
2022-12-27T11:20:31.860Z,4.90
2022-12-27T11:23:14.593Z,5.40
2022-12-27T11:25:58.232Z,8.80
2022-12-27T11:28:38.624Z,4.20
2022-12-27T11:31:17.030Z,7.10
2022-12-27T11:33:54.268Z,4.90
2022-12-27T11:36:35.084Z,6.20
2022-12-27T11:39:10.055Z,4.20
2022-12-27T11:41:50.829Z,7.30
2022-12-27T11:44:31.100Z,5.70
2022-12-27T11:47:13.732Z,5.60
2022-12-27T11:49:57.654Z,6.30
2022-12-27T11:53:10.170Z,4.60
2022-12-27T11:56:13.302Z,5.40
2022-12-27T11:59:27.034Z,6.40
2022-12-27T12:02:32.021Z,5.10
2022-12-27T12:05:46.235Z,4.70
2022-12-27T12:08:56.363Z,4.20
2022-12-27T12:11:53.058Z,4.30
2022-12-27T12:15:14.725Z,5.60
2022-12-27T12:18:14.569Z,6.00
2022-12-27T12:21:27.182Z,5.20
2022-12-27T12:24:43.344Z,4.90
2022-12-27T12:27:44.589Z,6.30
2022-12-27T12:30:46.300Z,6.80
2022-12-27T12:33:58.926Z,5.10
2022-12-27T12:36:53.474Z,4.90
2022-12-27T12:40:07.035Z,4.50
2022-12-27T12:42:57.271Z,3.00
2022-12-27T12:46:11.894Z,5.60
2022-12-27T12:49:25.895Z,4.90
2022-12-27T12:52:49.955Z,6.00
2022-12-27T12:55:46.564Z,4.40
2022-12-27T12:58:53.320Z,5.30
2022-12-27T13:01:55.464Z,5.80
2022-12-27T13:04:59.431Z,5.70
2022-12-27T13:07:52.630Z,4.10
2022-12-27T13:10:53.081Z,5.20
2022-12-27T13:13:41.135Z,4.90
2022-12-27T13:16:32.549Z,3.90
2022-12-27T13:19:27.453Z,4.60
2022-12-27T13:22:16.931Z,4.90
2022-12-27T13:25:19.047Z,3.00
2022-12-27T13:28:07.769Z,4.60
2022-12-27T13:30:57.844Z,4.10
2022-12-27T13:33:47.348Z,5.60
2022-12-27T13:36:35.995Z,4.60
2022-12-27T13:39:42.948Z,4.40
2022-12-27T13:43:01.332Z,3.70
2022-12-27T13:45:52.975Z,7.60
2022-12-27T13:49:00.998Z,4.80
2022-12-27T13:51:53.357Z,8.20
2022-12-27T13:55:07.472Z,6.80
2022-12-27T13:58:38.307Z,4.50
2022-12-27T14:01:48.425Z,5.90
2022-12-27T14:04:52.319Z,4.00
2022-12-27T14:08:02.319Z,4.70
2022-12-27T14:10:46.351Z,4.20
2022-12-27T14:13:31.312Z,4.90
2022-12-27T14:16:32.305Z,4.70
2022-12-27T14:19:45.321Z,5.40
2022-12-27T14:23:00.322Z,4.00
2022-12-27T14:26:33.319Z,5.70
2022-12-27T14:30:17.335Z,5.10
2022-12-27T14:34:00.316Z,5.70
2022-12-27T14:37:22.317Z,5.20
2022-12-27T14:40:40.325Z,6.40
2022-12-27T14:44:27.983Z,5.60
2022-12-27T14:47:56.384Z,8.10
2022-12-27T14:59:24.257Z,7.50
2022-12-27T15:02:26.985Z,5.60
2022-12-27T15:05:35.851Z,7.00
2022-12-27T15:08:42.936Z,10.90
2022-12-27T15:11:58.510Z,5.60
2022-12-27T15:15:10.652Z,6.40
2022-12-27T15:18:13.187Z,9.30
2022-12-27T15:21:24.381Z,7.60
2022-12-27T15:24:07.223Z,7.80
2022-12-27T15:26:54.066Z,9.10
2022-12-27T15:29:51.705Z,7.40
2022-12-27T15:32:38.755Z,8.40
2022-12-27T15:36:07.823Z,7.00
2022-12-27T15:38:55.353Z,5.50
2022-12-27T15:42:05.481Z,5.40
2022-12-27T15:45:00.500Z,7.20
2022-12-27T15:47:57.013Z,6.30
2022-12-27T15:50:54.499Z,7.00
2022-12-27T15:53:50.754Z,5.80
2022-12-27T15:56:49.601Z,4.60
2022-12-27T15:59:51.790Z,5.30
2022-12-27T16:02:38.735Z,6.70
2022-12-27T16:05:52.392Z,4.70
2022-12-27T16:08:40.304Z,5.70
2022-12-27T16:11:17.033Z,6.90
2022-12-27T16:14:13.737Z,11.30
2022-12-27T16:17:02.614Z,7.20
2022-12-27T16:19:56.117Z,7.70
2022-12-27T16:22:39.822Z,6.30
2022-12-27T16:25:35.782Z,7.10
2022-12-27T16:28:24.054Z,7.50
2022-12-27T16:31:01.100Z,4.60
2022-12-27T16:33:43.384Z,7.30
2022-12-27T16:36:38.195Z,9.00
2022-12-27T16:39:50.387Z,8.00
2022-12-27T16:42:42.749Z,4.60
2022-12-27T16:45:49.677Z,6.20
2022-12-27T16:48:40.521Z,5.80
2022-12-27T16:51:33.133Z,6.90
2022-12-27T16:54:28.074Z,5.70
2022-12-27T16:57:41.637Z,7.60
2022-12-27T17:00:43.169Z,6.10
2022-12-27T17:03:56.322Z,6.20
2022-12-27T17:06:58.746Z,7.70
2022-12-27T17:09:47.195Z,7.20
2022-12-27T17:12:29.538Z,5.20
2022-12-27T17:15:10.960Z,8.00
2022-12-27T17:17:53.075Z,11.50
2022-12-27T17:20:31.000Z,6.20
2022-12-27T17:23:09.043Z,5.90
2022-12-27T17:25:54.722Z,9.80
2022-12-27T17:28:40.432Z,9.10
2022-12-27T17:31:26.746Z,7.80
2022-12-27T17:34:18.759Z,7.80
2022-12-27T17:37:09.135Z,10.80
2022-12-27T17:40:09.407Z,8.20
2022-12-27T17:43:18.429Z,6.60
2022-12-27T17:46:02.754Z,7.70
2022-12-27T17:48:38.411Z,8.30
2022-12-27T17:51:20.337Z,8.90
2022-12-27T17:54:14.088Z,7.30
2022-12-27T17:57:15.018Z,7.60
2022-12-27T17:59:52.120Z,6.50
2022-12-27T18:02:34.267Z,7.70
2022-12-27T18:05:16.241Z,9.00
2022-12-27T18:07:50.784Z,8.10
2022-12-27T18:10:30.424Z,7.10
2022-12-27T18:13:08.621Z,8.00
2022-12-27T18:15:49.628Z,9.90
2022-12-27T18:18:28.392Z,9.10
2022-12-27T18:21:07.163Z,5.60
2022-12-27T18:23:49.280Z,6.90
2022-12-27T18:26:34.866Z,7.50
2022-12-27T18:29:13.663Z,8.30
2022-12-27T18:31:54.983Z,10.20
2022-12-27T18:34:37.149Z,10.60
2022-12-27T18:37:15.974Z,10.30
2022-12-27T18:39:56.704Z,14.40
2022-12-27T18:42:39.981Z,11.50
2022-12-27T18:45:27.232Z,9.30
2022-12-27T18:48:12.112Z,10.70
2022-12-27T18:50:55.103Z,8.70
2022-12-27T18:53:36.164Z,10.40
2022-12-27T18:56:32.611Z,9.80
2022-12-27T18:59:26.292Z,13.70
2022-12-27T19:02:02.897Z,14.80
2022-12-27T19:04:37.900Z,14.00
2022-12-27T19:07:15.821Z,16.70
2022-12-27T19:10:01.972Z,13.80
2022-12-27T19:12:42.894Z,11.20
2022-12-27T19:15:25.168Z,14.10
2022-12-27T19:18:03.634Z,10.10
2022-12-27T19:20:41.368Z,11.00
2022-12-27T19:23:33.387Z,10.30
2022-12-27T19:26:26.985Z,10.30
2022-12-27T19:29:14.753Z,12.50
2022-12-27T19:31:56.807Z,15.10
2022-12-27T19:34:42.419Z,17.60
2022-12-27T19:37:17.139Z,14.00
2022-12-27T19:39:52.873Z,14.20
2022-12-27T19:42:35.123Z,10.80
2022-12-27T19:45:14.735Z,9.30
2022-12-27T19:47:58.187Z,10.50
2022-12-27T19:50:33.039Z,12.30
2022-12-27T19:53:12.051Z,19.70
2022-12-27T19:55:48.143Z,27.10
2022-12-27T19:58:27.886Z,25.60
2022-12-27T20:01:04.278Z,22.70
2022-12-27T20:03:39.239Z,19.20
2022-12-27T20:06:24.132Z,17.50
2022-12-27T20:09:06.870Z,17.60
2022-12-27T20:11:45.346Z,14.50
2022-12-27T20:14:21.561Z,16.20
2022-12-27T20:16:59.741Z,14.10
2022-12-27T20:19:39.064Z,14.00
2022-12-27T20:22:15.021Z,16.40
2022-12-27T20:24:52.726Z,19.90
2022-12-27T20:27:27.648Z,14.90
2022-12-27T20:30:02.471Z,12.40
2022-12-27T20:32:38.260Z,9.60
2022-12-27T20:35:14.493Z,11.80
2022-12-27T20:37:52.044Z,14.50
2022-12-27T20:40:27.595Z,9.30
2022-12-27T20:43:02.515Z,13.00
2022-12-27T20:45:37.698Z,14.30
2022-12-27T20:48:13.987Z,14.00
2022-12-27T20:50:49.670Z,12.80
2022-12-27T20:53:28.528Z,14.70
2022-12-27T20:56:05.801Z,13.70
2022-12-27T20:58:41.683Z,13.40
2022-12-27T21:01:20.266Z,13.70
2022-12-27T21:03:57.269Z,13.30
2022-12-27T21:06:35.291Z,12.20
2022-12-27T21:09:10.944Z,12.50
2022-12-27T21:11:46.196Z,15.90
2022-12-27T21:14:21.054Z,13.50
2022-12-27T21:16:57.536Z,11.70
2022-12-27T21:19:32.775Z,12.90
2022-12-27T21:22:07.824Z,13.00
2022-12-27T21:24:43.387Z,15.20
2022-12-27T21:27:17.774Z,17.90
2022-12-27T21:29:52.451Z,15.20
2022-12-27T21:32:27.316Z,13.30
2022-12-27T21:35:02.537Z,10.90
2022-12-27T21:37:37.657Z,14.40
2022-12-27T21:40:14.982Z,14.70
2022-12-27T21:42:50.535Z,14.10
2022-12-27T21:45:26.478Z,13.90
2022-12-27T21:48:02.917Z,16.10
2022-12-27T21:50:37.610Z,15.80
2022-12-27T21:53:12.641Z,17.00
2022-12-27T21:55:47.954Z,17.90
2022-12-27T21:58:22.678Z,16.20
2022-12-27T22:01:08.108Z,17.20
2022-12-27T22:03:45.863Z,13.60
2022-12-27T22:06:23.609Z,29.20
2022-12-27T22:09:01.441Z,41.00
2022-12-27T22:11:38.444Z,18.50
2022-12-27T22:14:12.572Z,21.70
2022-12-27T22:16:46.840Z,30.10
2022-12-27T22:19:21.076Z,29.20
2022-12-27T22:21:54.904Z,26.50
2022-12-27T22:24:30.543Z,25.50
2022-12-27T22:27:04.851Z,20.90
2022-12-27T22:29:42.031Z,15.10
2022-12-27T22:32:16.175Z,17.10
2022-12-27T22:34:50.294Z,20.10
2022-12-27T22:37:24.578Z,15.80
2022-12-27T22:39:59.525Z,13.90
2022-12-27T22:42:35.015Z,15.20
2022-12-27T22:45:12.301Z,18.90
2022-12-27T22:47:47.565Z,14.30
2022-12-27T22:50:22.778Z,16.70
2022-12-27T22:52:56.565Z,16.00
2022-12-27T22:55:30.611Z,14.10
2022-12-27T22:58:04.489Z,17.00
2022-12-27T23:00:40.585Z,14.70
2022-12-27T23:03:16.070Z,16.40
2022-12-27T23:06:01.026Z,14.00
2022-12-27T23:08:37.096Z,11.90
2022-12-27T23:11:16.439Z,13.80
2022-12-27T23:13:58.533Z,15.50
2022-12-27T23:16:38.631Z,18.40
2022-12-27T23:19:13.751Z,13.90
2022-12-27T23:21:48.349Z,16.50
2022-12-27T23:24:22.883Z,14.70
2022-12-27T23:26:57.292Z,13.30
2022-12-27T23:29:30.987Z,18.80
2022-12-27T23:32:04.928Z,12.20
2022-12-27T23:34:38.789Z,15.30
2022-12-27T23:37:12.969Z,16.60
2022-12-27T23:39:47.076Z,15.60
2022-12-27T23:42:21.602Z,16.30
2022-12-27T23:44:55.543Z,17.10
2022-12-27T23:47:30.140Z,14.80
2022-12-27T23:50:04.119Z,13.30
2022-12-27T23:52:38.267Z,16.90
2022-12-27T23:55:13.925Z,15.30
2022-12-27T23:57:48.120Z,15.00
